Terminal Aerodrome Forecast
Issued by NWS Cleveland, OH

Home | Current Version | Previous Version | Text Only | Print | Product List | Glossary Off
Versions: 1 2 3 4 5 6 7 8 9 10 11 12

000
FTUS41 KCLE 171100
TAFMFD
TAF
KMFD 171125Z 1712/1812 15010KT P6SM BKN250
     FM171600 18012G18KT P6SM BKN250
     FM172300 18008KT P6SM SCT120 OVC200=

USA.gov is the U.S. government's official web portal to all federal, state and local government web resources and services.